sensor_id;sensor_type;location;lat;lon;timestamp;temperature;humidity
69006;SHT31;56061;51.748;19.620;2024-02-21T00:00:41;5.18;85.88
69006;SHT31;56061;51.748;19.620;2024-02-21T00:03:08;5.19;85.92
69006;SHT31;56061;51.748;19.620;2024-02-21T00:05:35;5.18;85.99
69006;SHT31;56061;51.748;19.620;2024-02-21T00:08:02;5.18;86.00
69006;SHT31;56061;51.748;19.620;2024-02-21T00:10:29;5.18;86.07
69006;SHT31;56061;51.748;19.620;2024-02-21T00:12:58;5.19;86.11
69006;SHT31;56061;51.748;19.620;2024-02-21T00:15:28;5.18;86.12
69006;SHT31;56061;51.748;19.620;2024-02-21T00:17:54;5.19;86.24
69006;SHT31;56061;51.748;19.620;2024-02-21T00:20:21;5.20;86.23
69006;SHT31;56061;51.748;19.620;2024-02-21T00:22:48;5.21;86.26
69006;SHT31;56061;51.748;19.620;2024-02-21T00:25:14;5.22;86.26
69006;SHT31;56061;51.748;19.620;2024-02-21T00:27:41;5.22;86.25
69006;SHT31;56061;51.748;19.620;2024-02-21T00:30:08;5.23;86.24
69006;SHT31;56061;51.748;19.620;2024-02-21T00:32:35;5.23;86.30
69006;SHT31;56061;51.748;19.620;2024-02-21T00:35:02;5.23;86.28
69006;SHT31;56061;51.748;19.620;2024-02-21T00:37:29;5.23;86.31
69006;SHT31;56061;51.748;19.620;2024-02-21T00:39:55;5.23;86.34
69006;SHT31;56061;51.748;19.620;2024-02-21T00:42:22;5.23;86.39
69006;SHT31;56061;51.748;19.620;2024-02-21T00:44:49;5.26;86.39
69006;SHT31;56061;51.748;19.620;2024-02-21T00:47:15;5.27;86.39
69006;SHT31;56061;51.748;19.620;2024-02-21T00:49:42;5.28;86.40
69006;SHT31;56061;51.748;19.620;2024-02-21T00:52:09;5.28;86.47
69006;SHT31;56061;51.748;19.620;2024-02-21T00:54:35;5.29;86.43
69006;SHT31;56061;51.748;19.620;2024-02-21T00:57:15;5.30;86.43
69006;SHT31;56061;51.748;19.620;2024-02-21T00:59:42;5.28;86.44
69006;SHT31;56061;51.748;19.620;2024-02-21T01:02:08;5.29;86.46
69006;SHT31;56061;51.748;19.620;2024-02-21T01:04:35;5.28;86.50
69006;SHT31;56061;51.748;19.620;2024-02-21T01:07:03;5.27;86.49
69006;SHT31;56061;51.748;19.620;2024-02-21T01:09:30;5.27;86.53
69006;SHT31;56061;51.748;19.620;2024-02-21T01:11:56;5.28;86.59
69006;SHT31;56061;51.748;19.620;2024-02-21T01:14:23;5.30;86.60
69006;SHT31;56061;51.748;19.620;2024-02-21T01:16:50;5.30;86.60
69006;SHT31;56061;51.748;19.620;2024-02-21T01:19:17;5.31;86.59
69006;SHT31;56061;51.748;19.620;2024-02-21T01:21:44;5.31;86.69
69006;SHT31;56061;51.748;19.620;2024-02-21T01:24:11;5.32;86.70
69006;SHT31;56061;51.748;19.620;2024-02-21T01:26:37;5.32;86.71
69006;SHT31;56061;51.748;19.620;2024-02-21T01:29:04;5.32;86.71
69006;SHT31;56061;51.748;19.620;2024-02-21T01:31:30;5.33;86.72
69006;SHT31;56061;51.748;19.620;2024-02-21T01:33:57;5.34;86.73
69006;SHT31;56061;51.748;19.620;2024-02-21T01:36:24;5.35;86.78
69006;SHT31;56061;51.748;19.620;2024-02-21T01:38:51;5.34;86.79
69006;SHT31;56061;51.748;19.620;2024-02-21T01:41:17;5.35;86.88
69006;SHT31;56061;51.748;19.620;2024-02-21T01:43:44;5.35;86.89
69006;SHT31;56061;51.748;19.620;2024-02-21T01:46:11;5.35;86.93
69006;SHT31;56061;51.748;19.620;2024-02-21T01:48:38;5.36;86.99
69006;SHT31;56061;51.748;19.620;2024-02-21T01:51:05;5.37;86.99
69006;SHT31;56061;51.748;19.620;2024-02-21T01:53:35;5.38;86.98
69006;SHT31;56061;51.748;19.620;2024-02-21T01:56:08;5.38;86.98
69006;SHT31;56061;51.748;19.620;2024-02-21T01:58:36;5.39;86.98
69006;SHT31;56061;51.748;19.620;2024-02-21T02:01:06;5.40;86.97
69006;SHT31;56061;51.748;19.620;2024-02-21T02:03:33;5.41;86.99
69006;SHT31;56061;51.748;19.620;2024-02-21T02:06:00;5.41;86.92
69006;SHT31;56061;51.748;19.620;2024-02-21T02:08:27;5.42;86.99
69006;SHT31;56061;51.748;19.620;2024-02-21T02:10:54;5.42;87.01
69006;SHT31;56061;51.748;19.620;2024-02-21T02:13:20;5.44;87.07
69006;SHT31;56061;51.748;19.620;2024-02-21T02:15:48;5.45;87.07
69006;SHT31;56061;51.748;19.620;2024-02-21T02:18:16;5.47;87.10
69006;SHT31;56061;51.748;19.620;2024-02-21T02:20:44;5.49;87.11
69006;SHT31;56061;51.748;19.620;2024-02-21T02:23:28;5.50;87.10
69006;SHT31;56061;51.748;19.620;2024-02-21T02:25:57;5.51;87.10
69006;SHT31;56061;51.748;19.620;2024-02-21T02:28:25;5.53;87.10
69006;SHT31;56061;51.748;19.620;2024-02-21T02:30:52;5.52;87.09
69006;SHT31;56061;51.748;19.620;2024-02-21T02:33:19;5.52;87.03
69006;SHT31;56061;51.748;19.620;2024-02-21T02:35:46;5.53;87.08
69006;SHT31;56061;51.748;19.620;2024-02-21T02:38:12;5.55;87.10
69006;SHT31;56061;51.748;19.620;2024-02-21T02:40:40;5.55;87.09
69006;SHT31;56061;51.748;19.620;2024-02-21T02:43:07;5.56;87.10
69006;SHT31;56061;51.748;19.620;2024-02-21T02:45:34;5.57;87.10
69006;SHT31;56061;51.748;19.620;2024-02-21T02:48:01;5.58;87.10
69006;SHT31;56061;51.748;19.620;2024-02-21T02:50:28;5.57;87.07
69006;SHT31;56061;51.748;19.620;2024-02-21T02:52:55;5.57;87.10
69006;SHT31;56061;51.748;19.620;2024-02-21T02:55:22;5.57;87.10
69006;SHT31;56061;51.748;19.620;2024-02-21T02:57:49;5.56;87.13
69006;SHT31;56061;51.748;19.620;2024-02-21T03:00:15;5.57;87.13
69006;SHT31;56061;51.748;19.620;2024-02-21T03:02:43;5.57;87.17
69006;SHT31;56061;51.748;19.620;2024-02-21T03:05:13;5.57;87.19
69006;SHT31;56061;51.748;19.620;2024-02-21T03:07:45;5.58;87.19
69006;SHT31;56061;51.748;19.620;2024-02-21T03:10:13;5.58;87.20
69006;SHT31;56061;51.748;19.620;2024-02-21T03:12:43;5.60;87.22
69006;SHT31;56061;51.748;19.620;2024-02-21T03:15:09;5.61;87.20
69006;SHT31;56061;51.748;19.620;2024-02-21T03:17:36;5.61;87.20
69006;SHT31;56061;51.748;19.620;2024-02-21T03:20:03;5.60;87.19
69006;SHT31;56061;51.748;19.620;2024-02-21T03:22:39;5.61;87.21
69006;SHT31;56061;51.748;19.620;2024-02-21T03:25:08;5.63;87.28
69006;SHT31;56061;51.748;19.620;2024-02-21T03:27:36;5.64;87.21
69006;SHT31;56061;51.748;19.620;2024-02-21T03:30:03;5.64;87.20
69006;SHT31;56061;51.748;19.620;2024-02-21T03:32:30;5.63;87.20
69006;SHT31;56061;51.748;19.620;2024-02-21T03:34:57;5.64;87.21
69006;SHT31;56061;51.748;19.620;2024-02-21T03:37:24;5.64;87.24
69006;SHT31;56061;51.748;19.620;2024-02-21T03:39:50;5.66;87.22
69006;SHT31;56061;51.748;19.620;2024-02-21T03:42:18;5.68;87.24
69006;SHT31;56061;51.748;19.620;2024-02-21T03:44:44;5.68;87.23
69006;SHT31;56061;51.748;19.620;2024-02-21T03:47:11;5.67;87.21
69006;SHT31;56061;51.748;19.620;2024-02-21T03:49:38;5.67;87.23
69006;SHT31;56061;51.748;19.620;2024-02-21T03:52:05;5.66;87.22
69006;SHT31;56061;51.748;19.620;2024-02-21T03:54:32;5.66;87.26
69006;SHT31;56061;51.748;19.620;2024-02-21T03:56:58;5.68;87.26
69006;SHT31;56061;51.748;19.620;2024-02-21T03:59:25;5.67;87.23
69006;SHT31;56061;51.748;19.620;2024-02-21T04:01:52;5.67;87.21
69006;SHT31;56061;51.748;19.620;2024-02-21T04:04:19;5.68;87.30
69006;SHT31;56061;51.748;19.620;2024-02-21T04:06:47;5.69;87.30
69006;SHT31;56061;51.748;19.620;2024-02-21T04:09:15;5.70;87.30
69006;SHT31;56061;51.748;19.620;2024-02-21T04:11:42;5.70;87.30
69006;SHT31;56061;51.748;19.620;2024-02-21T04:14:09;5.73;87.31
69006;SHT31;56061;51.748;19.620;2024-02-21T04:16:38;5.73;87.30
69006;SHT31;56061;51.748;19.620;2024-02-21T04:19:05;5.74;87.29
69006;SHT31;56061;51.748;19.620;2024-02-21T04:21:32;5.75;87.30
69006;SHT31;56061;51.748;19.620;2024-02-21T04:23:59;5.74;87.28
69006;SHT31;56061;51.748;19.620;2024-02-21T04:26:25;5.76;87.24
69006;SHT31;56061;51.748;19.620;2024-02-21T04:28:52;5.76;87.30
69006;SHT31;56061;51.748;19.620;2024-02-21T04:31:19;5.77;87.28
69006;SHT31;56061;51.748;19.620;2024-02-21T04:33:45;5.77;87.28
69006;SHT31;56061;51.748;19.620;2024-02-21T04:36:12;5.77;87.24
69006;SHT31;56061;51.748;19.620;2024-02-21T04:38:39;5.78;87.24
69006;SHT31;56061;51.748;19.620;2024-02-21T04:41:07;5.78;87.25
69006;SHT31;56061;51.748;19.620;2024-02-21T04:43:34;5.79;87.27
69006;SHT31;56061;51.748;19.620;2024-02-21T04:46:01;5.80;87.20
69006;SHT31;56061;51.748;19.620;2024-02-21T04:48:28;5.80;87.20
69006;SHT31;56061;51.748;19.620;2024-02-21T04:50:55;5.81;87.19
69006;SHT31;56061;51.748;19.620;2024-02-21T04:53:21;5.80;87.19
69006;SHT31;56061;51.748;19.620;2024-02-21T04:55:48;5.79;87.14
69006;SHT31;56061;51.748;19.620;2024-02-21T04:58:14;5.78;87.18
69006;SHT31;56061;51.748;19.620;2024-02-21T05:00:41;5.76;87.18
69006;SHT31;56061;51.748;19.620;2024-02-21T05:03:08;5.74;87.18
69006;SHT31;56061;51.748;19.620;2024-02-21T05:05:34;5.73;87.18
69006;SHT31;56061;51.748;19.620;2024-02-21T05:08:02;5.71;87.19
69006;SHT31;56061;51.748;19.620;2024-02-21T05:10:29;5.69;87.20
69006;SHT31;56061;51.748;19.620;2024-02-21T05:12:57;5.68;87.21
69006;SHT31;56061;51.748;19.620;2024-02-21T05:15:24;5.66;87.30
69006;SHT31;56061;51.748;19.620;2024-02-21T05:17:51;5.65;87.30
69006;SHT31;56061;51.748;19.620;2024-02-21T05:20:17;5.64;87.30
69006;SHT31;56061;51.748;19.620;2024-02-21T05:22:44;5.62;87.32
69006;SHT31;56061;51.748;19.620;2024-02-21T05:25:11;5.61;87.39
69006;SHT31;56061;51.748;19.620;2024-02-21T05:27:37;5.63;87.41
69006;SHT31;56061;51.748;19.620;2024-02-21T05:30:05;5.63;87.46
69006;SHT31;56061;51.748;19.620;2024-02-21T05:32:33;5.64;87.46
69006;SHT31;56061;51.748;19.620;2024-02-21T05:34:59;5.64;87.41
69006;SHT31;56061;51.748;19.620;2024-02-21T05:37:26;5.66;87.42
69006;SHT31;56061;51.748;19.620;2024-02-21T05:39:53;5.66;87.43
69006;SHT31;56061;51.748;19.620;2024-02-21T05:42:20;5.67;87.46
69006;SHT31;56061;51.748;19.620;2024-02-21T05:44:46;5.67;87.40
69006;SHT31;56061;51.748;19.620;2024-02-21T05:47:13;5.68;87.45
69006;SHT31;56061;51.748;19.620;2024-02-21T05:49:41;5.69;87.49
69006;SHT31;56061;51.748;19.620;2024-02-21T05:52:08;5.71;87.49
69006;SHT31;56061;51.748;19.620;2024-02-21T05:54:37;5.73;87.50
69006;SHT31;56061;51.748;19.620;2024-02-21T05:57:07;5.75;87.45
69006;SHT31;56061;51.748;19.620;2024-02-21T05:59:34;5.76;87.40
69006;SHT31;56061;51.748;19.620;2024-02-21T06:02:02;5.78;87.41
69006;SHT31;56061;51.748;19.620;2024-02-21T06:04:30;5.80;87.40
69006;SHT31;56061;51.748;19.620;2024-02-21T06:06:57;5.83;87.39
69006;SHT31;56061;51.748;19.620;2024-02-21T06:09:24;5.84;87.33
69006;SHT31;56061;51.748;19.620;2024-02-21T06:11:50;5.85;87.30
69006;SHT31;56061;51.748;19.620;2024-02-21T06:14:16;5.86;87.30
69006;SHT31;56061;51.748;19.620;2024-02-21T06:16:43;5.87;87.30
69006;SHT31;56061;51.748;19.620;2024-02-21T06:19:10;5.88;87.30
69006;SHT31;56061;51.748;19.620;2024-02-21T06:21:37;5.89;87.30
69006;SHT31;56061;51.748;19.620;2024-02-21T06:24:04;5.88;87.27
69006;SHT31;56061;51.748;19.620;2024-02-21T06:26:30;5.89;87.21
69006;SHT31;56061;51.748;19.620;2024-02-21T06:28:57;5.87;87.20
69006;SHT31;56061;51.748;19.620;2024-02-21T06:31:26;5.88;87.22
69006;SHT31;56061;51.748;19.620;2024-02-21T06:33:54;5.89;87.20
69006;SHT31;56061;51.748;19.620;2024-02-21T06:36:21;5.89;87.25
69006;SHT31;56061;51.748;19.620;2024-02-21T06:38:48;5.88;87.20
69006;SHT31;56061;51.748;19.620;2024-02-21T06:41:15;5.87;87.20
69006;SHT31;56061;51.748;19.620;2024-02-21T06:43:45;5.88;87.21
69006;SHT31;56061;51.748;19.620;2024-02-21T06:46:22;5.89;87.21
69006;SHT31;56061;51.748;19.620;2024-02-21T06:48:51;5.91;87.30
69006;SHT31;56061;51.748;19.620;2024-02-21T06:51:18;5.92;87.25
69006;SHT31;56061;51.748;19.620;2024-02-21T06:53:45;5.93;87.20
69006;SHT31;56061;51.748;19.620;2024-02-21T06:56:12;5.94;87.19
69006;SHT31;56061;51.748;19.620;2024-02-21T06:58:38;5.96;87.22
69006;SHT31;56061;51.748;19.620;2024-02-21T07:01:06;5.98;87.20
69006;SHT31;56061;51.748;19.620;2024-02-21T07:03:34;6.00;87.20
69006;SHT31;56061;51.748;19.620;2024-02-21T07:06:00;6.02;87.19
69006;SHT31;56061;51.748;19.620;2024-02-21T07:08:27;6.04;87.15
69006;SHT31;56061;51.748;19.620;2024-02-21T07:10:54;6.06;87.13
69006;SHT31;56061;51.748;19.620;2024-02-21T07:13:21;6.07;87.11
69006;SHT31;56061;51.748;19.620;2024-02-21T07:15:49;6.07;87.10
69006;SHT31;56061;51.748;19.620;2024-02-21T07:18:16;6.07;87.17
69006;SHT31;56061;51.748;19.620;2024-02-21T07:20:43;6.09;87.15
69006;SHT31;56061;51.748;19.620;2024-02-21T07:23:09;6.07;87.10
69006;SHT31;56061;51.748;19.620;2024-02-21T07:25:36;6.08;87.17
69006;SHT31;56061;51.748;19.620;2024-02-21T07:28:03;6.08;87.19
69006;SHT31;56061;51.748;19.620;2024-02-21T07:30:30;6.07;87.20
69006;SHT31;56061;51.748;19.620;2024-02-21T07:32:56;6.08;87.21
69006;SHT31;56061;51.748;19.620;2024-02-21T07:35:23;6.08;87.20
69006;SHT31;56061;51.748;19.620;2024-02-21T07:37:50;6.09;87.25
69006;SHT31;56061;51.748;19.620;2024-02-21T07:40:16;6.11;87.31
69006;SHT31;56061;51.748;19.620;2024-02-21T07:42:44;6.15;87.30
69006;SHT31;56061;51.748;19.620;2024-02-21T07:45:16;6.17;87.26
69006;SHT31;56061;51.748;19.620;2024-02-21T07:47:45;6.19;87.26
69006;SHT31;56061;51.748;19.620;2024-02-21T07:50:11;6.23;87.32
69006;SHT31;56061;51.748;19.620;2024-02-21T07:52:38;6.28;87.34
69006;SHT31;56061;51.748;19.620;2024-02-21T07:55:05;6.34;87.31
69006;SHT31;56061;51.748;19.620;2024-02-21T07:57:31;6.38;87.24
69006;SHT31;56061;51.748;19.620;2024-02-21T07:59:58;6.43;87.23
69006;SHT31;56061;51.748;19.620;2024-02-21T08:02:25;6.50;87.22
69006;SHT31;56061;51.748;19.620;2024-02-21T08:04:52;6.60;87.22
69006;SHT31;56061;51.748;19.620;2024-02-21T08:07:18;6.65;87.11
69006;SHT31;56061;51.748;19.620;2024-02-21T08:09:45;6.69;87.09
69006;SHT31;56061;51.748;19.620;2024-02-21T08:12:12;6.70;86.98
69006;SHT31;56061;51.748;19.620;2024-02-21T08:14:38;6.71;86.90
69006;SHT31;56061;51.748;19.620;2024-02-21T08:17:05;6.70;86.77
69006;SHT31;56061;51.748;19.620;2024-02-21T08:19:32;6.72;86.81
69006;SHT31;56061;51.748;19.620;2024-02-21T08:21:58;6.77;86.83
69006;SHT31;56061;51.748;19.620;2024-02-21T08:24:25;6.81;86.74
69006;SHT31;56061;51.748;19.620;2024-02-21T08:26:52;6.84;86.66
69006;SHT31;56061;51.748;19.620;2024-02-21T08:29:19;6.89;86.57
69006;SHT31;56061;51.748;19.620;2024-02-21T08:31:46;6.93;86.53
69006;SHT31;56061;51.748;19.620;2024-02-21T08:34:13;6.96;86.44
69006;SHT31;56061;51.748;19.620;2024-02-21T08:36:40;7.00;86.50
69006;SHT31;56061;51.748;19.620;2024-02-21T08:39:07;7.05;86.44
69006;SHT31;56061;51.748;19.620;2024-02-21T08:41:36;7.08;86.44
69006;SHT31;56061;51.748;19.620;2024-02-21T08:44:16;7.07;86.31
69006;SHT31;56061;51.748;19.620;2024-02-21T08:46:43;7.05;86.19
69006;SHT31;56061;51.748;19.620;2024-02-21T08:49:10;7.00;86.13
69006;SHT31;56061;51.748;19.620;2024-02-21T08:51:36;6.98;86.16
69006;SHT31;56061;51.748;19.620;2024-02-21T08:54:03;6.96;86.13
69006;SHT31;56061;51.748;19.620;2024-02-21T08:56:30;6.94;86.16
69006;SHT31;56061;51.748;19.620;2024-02-21T08:58:57;6.94;86.20
69006;SHT31;56061;51.748;19.620;2024-02-21T09:01:25;6.95;86.20
69006;SHT31;56061;51.748;19.620;2024-02-21T09:03:53;6.95;86.19
69006;SHT31;56061;51.748;19.620;2024-02-21T09:06:20;6.97;86.22
69006;SHT31;56061;51.748;19.620;2024-02-21T09:08:47;7.00;86.26
69006;SHT31;56061;51.748;19.620;2024-02-21T09:11:15;7.01;86.22
69006;SHT31;56061;51.748;19.620;2024-02-21T09:13:42;7.01;86.10
69006;SHT31;56061;51.748;19.620;2024-02-21T09:16:08;7.02;86.10
69006;SHT31;56061;51.748;19.620;2024-02-21T09:18:35;7.05;86.10
69006;SHT31;56061;51.748;19.620;2024-02-21T09:21:02;7.07;86.11
69006;SHT31;56061;51.748;19.620;2024-02-21T09:23:29;7.10;86.09
69006;SHT31;56061;51.748;19.620;2024-02-21T09:25:58;7.16;86.04
69006;SHT31;56061;51.748;19.620;2024-02-21T09:28:27;7.28;86.03
69006;SHT31;56061;51.748;19.620;2024-02-21T09:30:54;7.40;85.91
69006;SHT31;56061;51.748;19.620;2024-02-21T09:33:20;7.47;85.63
69006;SHT31;56061;51.748;19.620;2024-02-21T09:35:57;7.57;85.53
69006;SHT31;56061;51.748;19.620;2024-02-21T09:38:25;7.65;85.35
69006;SHT31;56061;51.748;19.620;2024-02-21T09:40:54;7.73;85.15
69006;SHT31;56061;51.748;19.620;2024-02-21T09:43:19;7.80;84.97
69006;SHT31;56061;51.748;19.620;2024-02-21T09:45:47;7.88;84.97
69006;SHT31;56061;51.748;19.620;2024-02-21T09:51:19;8.04;84.65
69006;SHT31;56061;51.748;19.620;2024-02-21T09:53:47;8.06;84.51
69006;SHT31;56061;51.748;19.620;2024-02-21T09:56:16;8.10;84.48
69006;SHT31;56061;51.748;19.620;2024-02-21T09:58:43;8.15;84.35
69006;SHT31;56061;51.748;19.620;2024-02-21T10:01:10;8.17;84.07
69006;SHT31;56061;51.748;19.620;2024-02-21T10:03:54;8.20;83.84
69006;SHT31;56061;51.748;19.620;2024-02-21T10:06:24;8.23;83.71
69006;SHT31;56061;51.748;19.620;2024-02-21T10:11:23;8.32;83.46
69006;SHT31;56061;51.748;19.620;2024-02-21T10:13:50;8.38;83.36
69006;SHT31;56061;51.748;19.620;2024-02-21T10:16:17;8.44;83.21
69006;SHT31;56061;51.748;19.620;2024-02-21T10:18:43;8.47;83.08
69006;SHT31;56061;51.748;19.620;2024-02-21T10:21:10;8.48;82.80
69006;SHT31;56061;51.748;19.620;2024-02-21T10:23:43;8.56;83.00
69006;SHT31;56061;51.748;19.620;2024-02-21T10:26:12;8.65;82.55
69006;SHT31;56061;51.748;19.620;2024-02-21T10:28:39;8.71;82.55
69006;SHT31;56061;51.748;19.620;2024-02-21T10:31:11;8.84;82.56
69006;SHT31;56061;51.748;19.620;2024-02-21T10:36:19;9.07;82.25
69006;SHT31;56061;51.748;19.620;2024-02-21T10:38:45;9.18;82.40
69006;SHT31;56061;51.748;19.620;2024-02-21T10:41:13;9.30;82.10
69006;SHT31;56061;51.748;19.620;2024-02-21T10:43:41;9.36;81.58
69006;SHT31;56061;51.748;19.620;2024-02-21T10:46:18;9.42;81.37
69006;SHT31;56061;51.748;19.620;2024-02-21T10:48:46;9.44;81.07
69006;SHT31;56061;51.748;19.620;2024-02-21T10:51:19;9.43;80.45
69006;SHT31;56061;51.748;19.620;2024-02-21T10:56:28;9.41;80.13
69006;SHT31;56061;51.748;19.620;2024-02-21T10:58:57;9.35;79.88
69006;SHT31;56061;51.748;19.620;2024-02-21T11:01:26;9.28;80.08
69006;SHT31;56061;51.748;19.620;2024-02-21T11:03:57;9.22;80.15
69006;SHT31;56061;51.748;19.620;2024-02-21T11:06:27;9.15;80.10
69006;SHT31;56061;51.748;19.620;2024-02-21T11:09:05;9.08;79.89
69006;SHT31;56061;51.748;19.620;2024-02-21T11:11:37;9.01;80.09
69006;SHT31;56061;51.748;19.620;2024-02-21T11:14:28;8.97;80.15
69006;SHT31;56061;51.748;19.620;2024-02-21T11:16:54;8.94;80.23
69006;SHT31;56061;51.748;19.620;2024-02-21T11:19:23;8.89;79.98
69006;SHT31;56061;51.748;19.620;2024-02-21T11:21:53;8.83;79.91
69006;SHT31;56061;51.748;19.620;2024-02-21T11:24:25;8.80;80.32
69006;SHT31;56061;51.748;19.620;2024-02-21T11:26:56;8.73;80.33
69006;SHT31;56061;51.748;19.620;2024-02-21T11:29:45;8.70;80.46
69006;SHT31;56061;51.748;19.620;2024-02-21T11:32:15;8.68;80.55
69006;SHT31;56061;51.748;19.620;2024-02-21T11:37:17;8.70;80.65
69006;SHT31;56061;51.748;19.620;2024-02-21T11:39:44;8.72;80.79
69006;SHT31;56061;51.748;19.620;2024-02-21T11:42:10;8.76;80.73
69006;SHT31;56061;51.748;19.620;2024-02-21T11:44:38;8.78;80.72
69006;SHT31;56061;51.748;19.620;2024-02-21T11:47:06;8.80;80.94
69006;SHT31;56061;51.748;19.620;2024-02-21T11:49:37;8.80;80.98
69006;SHT31;56061;51.748;19.620;2024-02-21T11:52:08;8.79;81.19
69006;SHT31;56061;51.748;19.620;2024-02-21T11:54:34;8.77;81.17
69006;SHT31;56061;51.748;19.620;2024-02-21T11:57:01;8.73;81.00
69006;SHT31;56061;51.748;19.620;2024-02-21T11:59:30;8.70;81.13
69006;SHT31;56061;51.748;19.620;2024-02-21T12:01:58;8.69;81.00
69006;SHT31;56061;51.748;19.620;2024-02-21T12:04:32;8.66;81.13
69006;SHT31;56061;51.748;19.620;2024-02-21T12:06:59;8.64;81.21
69006;SHT31;56061;51.748;19.620;2024-02-21T12:09:26;8.65;81.20
69006;SHT31;56061;51.748;19.620;2024-02-21T12:11:59;8.66;81.27
69006;SHT31;56061;51.748;19.620;2024-02-21T12:14:32;8.65;81.37
69006;SHT31;56061;51.748;19.620;2024-02-21T12:17:01;8.63;81.39
69006;SHT31;56061;51.748;19.620;2024-02-21T12:19:32;8.62;81.12
69006;SHT31;56061;51.748;19.620;2024-02-21T12:22:00;8.59;81.06
69006;SHT31;56061;51.748;19.620;2024-02-21T12:24:28;8.56;81.10
69006;SHT31;56061;51.748;19.620;2024-02-21T12:26:56;8.55;81.31
69006;SHT31;56061;51.748;19.620;2024-02-21T12:29:24;8.53;81.25
69006;SHT31;56061;51.748;19.620;2024-02-21T12:31:51;8.53;81.34
69006;SHT31;56061;51.748;19.620;2024-02-21T12:34:17;8.53;81.56
69006;SHT31;56061;51.748;19.620;2024-02-21T12:36:59;8.55;81.58
69006;SHT31;56061;51.748;19.620;2024-02-21T12:39:27;8.57;81.68
69006;SHT31;56061;51.748;19.620;2024-02-21T12:41:55;8.59;81.70
69006;SHT31;56061;51.748;19.620;2024-02-21T12:44:24;8.60;81.80
69006;SHT31;56061;51.748;19.620;2024-02-21T12:46:51;8.59;81.82
69006;SHT31;56061;51.748;19.620;2024-02-21T12:49:19;8.60;81.84
69006;SHT31;56061;51.748;19.620;2024-02-21T12:51:46;8.61;81.82
69006;SHT31;56061;51.748;19.620;2024-02-21T12:54:13;8.58;81.77
69006;SHT31;56061;51.748;19.620;2024-02-21T12:56:39;8.56;81.90
69006;SHT31;56061;51.748;19.620;2024-02-21T12:59:06;8.52;81.93
69006;SHT31;56061;51.748;19.620;2024-02-21T13:01:36;8.51;82.03
69006;SHT31;56061;51.748;19.620;2024-02-21T13:04:04;8.49;82.12
69006;SHT31;56061;51.748;19.620;2024-02-21T13:06:31;8.49;82.20
69006;SHT31;56061;51.748;19.620;2024-02-21T13:08:58;8.49;82.26
69006;SHT31;56061;51.748;19.620;2024-02-21T13:11:25;8.50;82.28
69006;SHT31;56061;51.748;19.620;2024-02-21T13:13:57;8.51;82.23
69006;SHT31;56061;51.748;19.620;2024-02-21T13:16:24;8.50;82.11
69006;SHT31;56061;51.748;19.620;2024-02-21T13:18:52;8.48;82.18
69006;SHT31;56061;51.748;19.620;2024-02-21T13:21:19;8.46;82.31
69006;SHT31;56061;51.748;19.620;2024-02-21T13:23:46;8.46;82.34
69006;SHT31;56061;51.748;19.620;2024-02-21T13:26:13;8.43;82.30
69006;SHT31;56061;51.748;19.620;2024-02-21T13:28:40;8.39;82.25
69006;SHT31;56061;51.748;19.620;2024-02-21T13:31:08;8.37;82.16
69006;SHT31;56061;51.748;19.620;2024-02-21T13:33:34;8.32;82.30
69006;SHT31;56061;51.748;19.620;2024-02-21T13:36:01;8.30;82.28
69006;SHT31;56061;51.748;19.620;2024-02-21T13:38:28;8.28;82.33
69006;SHT31;56061;51.748;19.620;2024-02-21T13:40:55;8.27;82.49
69006;SHT31;56061;51.748;19.620;2024-02-21T13:43:21;8.27;82.54
69006;SHT31;56061;51.748;19.620;2024-02-21T13:48:19;8.23;82.45
69006;SHT31;56061;51.748;19.620;2024-02-21T13:50:46;8.19;82.44
69006;SHT31;56061;51.748;19.620;2024-02-21T13:53:12;8.17;82.46
69006;SHT31;56061;51.748;19.620;2024-02-21T13:55:39;8.15;82.41
69006;SHT31;56061;51.748;19.620;2024-02-21T13:58:07;8.12;82.44
69006;SHT31;56061;51.748;19.620;2024-02-21T14:00:35;8.12;82.54
69006;SHT31;56061;51.748;19.620;2024-02-21T14:03:02;8.10;82.62
69006;SHT31;56061;51.748;19.620;2024-02-21T14:05:29;8.06;82.51
69006;SHT31;56061;51.748;19.620;2024-02-21T14:07:56;8.05;82.50
69006;SHT31;56061;51.748;19.620;2024-02-21T14:10:23;8.03;82.53
69006;SHT31;56061;51.748;19.620;2024-02-21T14:12:50;8.00;82.43
69006;SHT31;56061;51.748;19.620;2024-02-21T14:15:16;7.96;82.55
69006;SHT31;56061;51.748;19.620;2024-02-21T14:17:43;7.94;82.66
69006;SHT31;56061;51.748;19.620;2024-02-21T14:20:10;7.94;82.67
69006;SHT31;56061;51.748;19.620;2024-02-21T14:22:41;7.91;82.60
69006;SHT31;56061;51.748;19.620;2024-02-21T14:25:08;7.87;82.60
69006;SHT31;56061;51.748;19.620;2024-02-21T14:27:34;7.84;82.54
69006;SHT31;56061;51.748;19.620;2024-02-21T14:30:03;7.83;82.57
69006;SHT31;56061;51.748;19.620;2024-02-21T14:32:30;7.82;82.60
69006;SHT31;56061;51.748;19.620;2024-02-21T14:34:57;7.81;82.60
69006;SHT31;56061;51.748;19.620;2024-02-21T14:37:28;7.80;82.61
69006;SHT31;56061;51.748;19.620;2024-02-21T14:39:55;7.78;82.46
69006;SHT31;56061;51.748;19.620;2024-02-21T14:42:21;7.75;82.34
69006;SHT31;56061;51.748;19.620;2024-02-21T14:44:48;7.73;82.19
69006;SHT31;56061;51.748;19.620;2024-02-21T14:47:14;7.69;82.15
69006;SHT31;56061;51.748;19.620;2024-02-21T14:49:41;7.66;82.20
69006;SHT31;56061;51.748;19.620;2024-02-21T14:52:07;7.63;82.30
69006;SHT31;56061;51.748;19.620;2024-02-21T14:54:34;7.60;82.34
69006;SHT31;56061;51.748;19.620;2024-02-21T14:57:00;7.58;82.38
69006;SHT31;56061;51.748;19.620;2024-02-21T14:59:28;7.55;82.46
69006;SHT31;56061;51.748;19.620;2024-02-21T15:02:00;7.54;82.60
69006;SHT31;56061;51.748;19.620;2024-02-21T15:04:27;7.54;82.66
69006;SHT31;56061;51.748;19.620;2024-02-21T15:06:54;7.52;82.74
69006;SHT31;56061;51.748;19.620;2024-02-21T15:09:20;7.51;82.91
69006;SHT31;56061;51.748;19.620;2024-02-21T15:11:46;7.49;82.99
69006;SHT31;56061;51.748;19.620;2024-02-21T15:14:13;7.47;83.19
69006;SHT31;56061;51.748;19.620;2024-02-21T15:16:40;7.44;83.31
69006;SHT31;56061;51.748;19.620;2024-02-21T15:19:07;7.43;83.45
69006;SHT31;56061;51.748;19.620;2024-02-21T15:21:33;7.41;83.53
69006;SHT31;56061;51.748;19.620;2024-02-21T15:24:00;7.39;83.64
69006;SHT31;56061;51.748;19.620;2024-02-21T15:26:28;7.37;83.76
69006;SHT31;56061;51.748;19.620;2024-02-21T15:28:56;7.38;83.87
69006;SHT31;56061;51.748;19.620;2024-02-21T15:31:23;7.34;83.94
69006;SHT31;56061;51.748;19.620;2024-02-21T15:33:51;7.33;84.00
69006;SHT31;56061;51.748;19.620;2024-02-21T15:36:20;7.33;84.09
69006;SHT31;56061;51.748;19.620;2024-02-21T15:38:47;7.33;84.23
69006;SHT31;56061;51.748;19.620;2024-02-21T15:41:14;7.30;84.29
69006;SHT31;56061;51.748;19.620;2024-02-21T15:43:43;7.30;84.39
69006;SHT31;56061;51.748;19.620;2024-02-21T15:46:14;7.29;84.44
69006;SHT31;56061;51.748;19.620;2024-02-21T15:48:41;7.28;84.52